Sylvan Lake, Michigan
Current Conditions -  °F | °C
As of 4:53 AM on Thursday 18 Dec 2014 (Local Time) from KPTK Reporting Station
Overcast Overcast  
Wind Chill: 19°   Ceiling: 1300
Heat Index: 28°   Visibility: 10mi
Dew Point: 22°   Wind: 9mph
Humidity: 78%   Direction: 290°WNW
Pressure: 30.14"   Gusts: NA
Location:  42.6112°N, 83.3377°W
Report Text: KPTK 180953Z AUTO 29008KT 10SM OVC013 M02/M06 A3014 RMK AO2 SLP219 T10221056 $
Loading
Personal Weather Stations






























Interactive Weather Map New forecast layout! Learn more

10-Day Weather Forecast

Advertisements
Track Severe Weather on mobile